createdAt,value
2018-03-11T00:01:54.120Z,100.00
2018-03-11T00:04:22.393Z,100.00
2018-03-11T00:06:50.692Z,100.00
2018-03-11T00:09:18.973Z,100.00
2018-03-11T00:11:47.320Z,100.00
2018-03-11T00:14:15.592Z,100.00
2018-03-11T00:16:43.882Z,100.00
2018-03-11T00:19:12.152Z,100.00
2018-03-11T00:21:40.416Z,100.00
2018-03-11T00:24:08.725Z,100.00
2018-03-11T00:26:36.997Z,100.00
2018-03-11T00:29:05.368Z,100.00
2018-03-11T00:31:33.660Z,100.00
2018-03-11T00:34:01.965Z,100.00
2018-03-11T00:36:31.100Z,100.00
2018-03-11T00:38:59.380Z,100.00
2018-03-11T00:41:27.663Z,100.00
2018-03-11T00:43:56.024Z,100.00
2018-03-11T00:46:24.301Z,100.00
2018-03-11T00:48:52.592Z,100.00
2018-03-11T00:51:20.872Z,100.00
2018-03-11T00:53:49.176Z,100.00
2018-03-11T00:56:17.457Z,100.00
2018-03-11T00:58:45.796Z,100.00
2018-03-11T01:01:14.086Z,100.00
2018-03-11T01:03:42.372Z,100.00
2018-03-11T01:06:10.649Z,100.00
2018-03-11T01:08:39.000Z,100.00
2018-03-11T01:11:07.300Z,100.00
2018-03-11T01:13:35.669Z,100.00
2018-03-11T01:16:04.767Z,100.00
2018-03-11T01:18:33.121Z,100.00
2018-03-11T01:21:01.392Z,100.00
2018-03-11T01:23:29.679Z,100.00
2018-03-11T01:25:58.060Z,100.00
2018-03-11T01:28:26.324Z,100.00
2018-03-11T01:30:54.608Z,100.00
2018-03-11T01:33:22.884Z,100.00
2018-03-11T01:35:51.170Z,100.00
2018-03-11T01:38:19.439Z,100.00
2018-03-11T01:40:47.812Z,100.00
2018-03-11T01:43:16.076Z,100.00
2018-03-11T01:45:44.364Z,100.00
2018-03-11T01:48:12.649Z,100.00
2018-03-11T01:50:40.913Z,100.00
2018-03-11T01:53:10.116Z,100.00
2018-03-11T01:55:38.402Z,100.00
2018-03-11T01:58:06.792Z,100.00
2018-03-11T02:00:36.306Z,100.00
2018-03-11T02:03:04.664Z,100.00
2018-03-11T02:05:33.072Z,100.00
2018-03-11T02:08:01.416Z,100.00
2018-03-11T02:10:29.713Z,100.00
2018-03-11T02:12:57.984Z,100.00
2018-03-11T02:15:26.345Z,100.00
2018-03-11T02:17:54.724Z,100.00
2018-03-11T02:20:23.094Z,100.00
2018-03-11T02:22:51.387Z,100.00
2018-03-11T02:25:19.758Z,99.80
2018-03-11T02:27:48.847Z,99.07
2018-03-11T02:30:17.133Z,98.52
2018-03-11T02:32:45.424Z,97.97
2018-03-11T02:35:13.709Z,97.70
2018-03-11T02:37:41.993Z,98.73
2018-03-11T02:40:10.336Z,98.42
2018-03-11T02:42:38.712Z,97.71
2018-03-11T02:45:06.983Z,96.93
2018-03-11T02:47:35.282Z,96.75
2018-03-11T02:50:03.558Z,96.10
2018-03-11T02:52:31.827Z,99.65
2018-03-11T02:55:00.122Z,98.64
2018-03-11T02:57:28.467Z,99.53
2018-03-11T02:59:56.743Z,100.00
2018-03-11T03:02:25.133Z,100.00
2018-03-11T03:04:53.412Z,100.00
2018-03-11T03:07:21.688Z,99.35
2018-03-11T03:09:49.965Z,98.86
2018-03-11T03:12:18.248Z,98.00
2018-03-11T03:14:46.524Z,98.07
2018-03-11T03:17:14.892Z,98.28
2018-03-11T03:19:43.264Z,100.00
2018-03-11T03:22:11.542Z,100.00
2018-03-11T03:24:39.823Z,100.00
2018-03-11T03:27:08.109Z,100.00
2018-03-11T03:29:36.464Z,100.00
2018-03-11T03:32:04.848Z,100.00
2018-03-11T03:34:33.119Z,100.00
2018-03-11T03:37:01.411Z,99.89
2018-03-11T03:39:29.696Z,99.64
2018-03-11T03:41:58.053Z,98.92
2018-03-11T03:44:26.310Z,99.39
2018-03-11T03:46:54.598Z,99.22
2018-03-11T03:49:22.869Z,99.57
2018-03-11T03:51:51.142Z,98.66
2018-03-11T03:54:19.450Z,97.77
2018-03-11T03:56:47.811Z,98.20
2018-03-11T03:59:16.185Z,98.69
2018-03-11T04:01:44.484Z,99.62
2018-03-11T04:04:12.752Z,100.00
2018-03-11T04:06:41.035Z,100.00
2018-03-11T04:09:09.393Z,100.00
2018-03-11T04:11:37.683Z,99.27
2018-03-11T04:14:05.946Z,98.57
2018-03-11T04:16:34.208Z,97.44
2018-03-11T04:19:02.494Z,97.90
2018-03-11T04:21:30.790Z,97.71
2018-03-11T04:23:59.052Z,97.57
2018-03-11T04:26:27.356Z,97.11
2018-03-11T04:28:55.804Z,96.93
2018-03-11T04:31:24.190Z,96.94
2018-03-11T04:33:52.464Z,96.74
2018-03-11T04:36:20.772Z,96.12
2018-03-11T04:38:49.032Z,95.82
2018-03-11T04:41:17.398Z,96.04
2018-03-11T04:43:45.685Z,95.67
2018-03-11T04:46:13.940Z,95.49
2018-03-11T04:48:42.228Z,95.62
2018-03-11T04:51:10.613Z,95.87
2018-03-11T04:53:38.977Z,96.77
2018-03-11T04:56:07.271Z,96.63
2018-03-11T04:58:35.536Z,96.70
2018-03-11T05:01:03.826Z,96.42
2018-03-11T05:03:32.091Z,96.32
2018-03-11T05:06:00.373Z,96.16
2018-03-11T05:08:28.651Z,95.41
2018-03-11T05:10:56.919Z,95.71
2018-03-11T05:13:25.202Z,96.15
2018-03-11T05:15:53.568Z,96.13
2018-03-11T05:18:21.839Z,95.88
2018-03-11T05:20:50.226Z,95.71
2018-03-11T05:23:18.501Z,95.80
2018-03-11T05:25:46.766Z,95.47
2018-03-11T05:28:15.053Z,95.33
2018-03-11T05:30:43.428Z,95.12
2018-03-11T05:33:11.696Z,95.22
2018-03-11T05:35:39.991Z,95.20
2018-03-11T05:38:08.267Z,94.73
2018-03-11T05:40:36.635Z,94.97
2018-03-11T05:43:05.008Z,94.88
2018-03-11T05:45:33.280Z,96.56
2018-03-11T05:48:01.573Z,95.82
2018-03-11T05:50:29.861Z,95.60
2018-03-11T05:52:58.218Z,95.31
2018-03-11T05:55:26.499Z,95.34
2018-03-11T05:57:54.875Z,95.15
2018-03-11T06:00:23.136Z,95.02
2018-03-11T06:02:51.432Z,94.74
2018-03-11T06:05:19.696Z,95.18
2018-03-11T06:07:47.993Z,94.98
2018-03-11T06:10:16.251Z,95.09
2018-03-11T06:12:44.633Z,94.95
2018-03-11T06:15:12.907Z,100.00
2018-03-11T06:17:41.289Z,100.00
2018-03-11T06:20:09.665Z,100.00
2018-03-11T06:22:37.950Z,100.00
2018-03-11T06:25:06.524Z,99.58
2018-03-11T06:27:34.797Z,98.28
2018-03-11T06:30:03.086Z,97.85
2018-03-11T06:32:32.133Z,97.82
2018-03-11T06:35:01.177Z,100.00
2018-03-11T06:37:29.468Z,100.00
2018-03-11T06:39:57.760Z,100.00
2018-03-11T06:42:26.100Z,100.00
2018-03-11T06:44:54.476Z,100.00
2018-03-11T06:47:22.770Z,100.00
2018-03-11T06:49:51.046Z,100.00
2018-03-11T06:52:19.328Z,100.00
2018-03-11T06:54:47.621Z,100.00
2018-03-11T06:57:15.959Z,100.00
2018-03-11T06:59:44.235Z,100.00
2018-03-11T07:02:12.529Z,100.00
2018-03-11T07:04:40.797Z,100.00
2018-03-11T07:07:09.092Z,100.00
2018-03-11T07:09:37.371Z,100.00
2018-03-11T07:12:05.651Z,100.00
2018-03-11T07:14:33.940Z,99.13
2018-03-11T07:17:02.207Z,97.46
2018-03-11T07:19:30.476Z,96.12
2018-03-11T07:21:58.762Z,95.83
2018-03-11T07:24:27.027Z,94.51
2018-03-11T07:26:55.381Z,93.09
2018-03-11T07:29:23.744Z,92.42
2018-03-11T07:31:52.123Z,91.64
2018-03-11T07:34:20.404Z,92.42
2018-03-11T07:36:48.672Z,92.74
2018-03-11T07:39:16.964Z,92.43
2018-03-11T07:41:45.337Z,91.60
2018-03-11T07:44:13.600Z,92.63
2018-03-11T07:46:41.888Z,92.24
2018-03-11T07:49:10.151Z,92.12
2018-03-11T07:51:38.432Z,93.16
2018-03-11T07:54:06.727Z,93.10
2018-03-11T07:56:35.104Z,92.64
2018-03-11T07:59:03.436Z,93.08
2018-03-11T08:01:32.463Z,93.67
2018-03-11T08:04:00.724Z,93.08
2018-03-11T08:06:29.016Z,91.69
2018-03-11T08:08:57.316Z,89.94
2018-03-11T08:11:25.611Z,90.85
2018-03-11T08:13:53.872Z,90.84
2018-03-11T08:16:22.141Z,91.21
2018-03-11T08:18:50.423Z,90.80
2018-03-11T08:21:18.694Z,90.19
2018-03-11T08:23:46.962Z,89.66
2018-03-11T08:26:15.240Z,89.18
2018-03-11T08:28:43.619Z,88.73
2018-03-11T08:31:11.987Z,87.97
2018-03-11T08:33:40.269Z,87.85
2018-03-11T08:36:08.563Z,87.51
2018-03-11T08:38:36.850Z,88.48
2018-03-11T08:41:05.193Z,87.80
2018-03-11T08:43:33.464Z,88.29
2018-03-11T08:46:01.837Z,87.94
2018-03-11T08:48:30.100Z,86.70
2018-03-11T08:50:58.407Z,86.08
2018-03-11T08:53:26.804Z,85.88
2018-03-11T08:55:55.056Z,85.55
2018-03-11T08:58:23.316Z,85.31
2018-03-11T09:00:51.596Z,86.54
2018-03-11T09:03:19.884Z,86.77
2018-03-11T09:05:48.255Z,85.89
2018-03-11T09:08:16.539Z,84.24
2018-03-11T09:10:44.817Z,84.59
2018-03-11T09:13:13.076Z,84.56
2018-03-11T09:15:41.509Z,83.64
2018-03-11T09:18:09.737Z,83.13
2018-03-11T09:20:38.013Z,82.48
2018-03-11T09:23:06.392Z,83.34
2018-03-11T09:25:34.774Z,82.68
2018-03-11T09:28:03.044Z,82.08
2018-03-11T09:30:31.325Z,81.66
2018-03-11T09:32:59.587Z,81.90
2018-03-11T09:35:27.840Z,81.85
2018-03-11T09:37:56.887Z,82.12
2018-03-11T09:40:25.157Z,80.96
2018-03-11T09:42:53.437Z,79.77
2018-03-11T09:45:21.712Z,79.69
2018-03-11T09:47:50.079Z,80.25
2018-03-11T09:50:18.347Z,81.47
2018-03-11T09:52:46.627Z,81.71
2018-03-11T09:55:14.902Z,80.98
2018-03-11T09:57:43.167Z,80.74
2018-03-11T10:00:11.441Z,80.85
2018-03-11T10:02:39.704Z,81.15
2018-03-11T10:05:08.724Z,80.76
2018-03-11T10:07:37.005Z,81.31
2018-03-11T10:10:05.269Z,81.56
2018-03-11T10:12:33.656Z,83.43
2018-03-11T10:15:01.921Z,81.73
2018-03-11T10:17:30.216Z,81.44
2018-03-11T10:19:58.492Z,81.58
2018-03-11T10:22:26.764Z,81.89
2018-03-11T10:24:55.036Z,82.87
2018-03-11T10:27:23.310Z,83.75
2018-03-11T10:29:51.561Z,86.53
2018-03-11T10:32:20.683Z,89.76
2018-03-11T10:34:48.952Z,92.83
2018-03-11T10:37:17.288Z,93.26
2018-03-11T10:39:45.650Z,95.10
2018-03-11T10:42:13.976Z,95.74
2018-03-11T10:44:42.266Z,96.10
2018-03-11T10:47:10.542Z,95.79
2018-03-11T10:49:39.113Z,96.21
2018-03-11T10:52:07.392Z,95.35
2018-03-11T10:54:35.769Z,95.58
2018-03-11T10:57:04.026Z,95.09
2018-03-11T10:59:33.113Z,94.69
2018-03-11T11:02:02.132Z,94.01
2018-03-11T11:04:34.156Z,93.64
2018-03-11T11:07:02.490Z,92.03
2018-03-11T11:09:30.762Z,91.91
2018-03-11T11:11:59.109Z,91.19
2018-03-11T11:14:28.177Z,90.31
2018-03-11T11:16:56.521Z,89.91
2018-03-11T11:19:24.895Z,88.80
2018-03-11T11:21:53.175Z,87.66
2018-03-11T11:24:21.634Z,87.20
2018-03-11T11:26:50.592Z,85.35
2018-03-11T11:29:19.211Z,85.08
2018-03-11T11:31:47.704Z,84.91
2018-03-11T11:34:16.051Z,83.07
2018-03-11T11:36:45.179Z,83.19
2018-03-11T11:39:13.444Z,81.29
2018-03-11T11:41:41.859Z,79.67
2018-03-11T11:44:10.214Z,79.21
2018-03-11T11:46:38.472Z,80.83
2018-03-11T11:49:06.782Z,80.28
2018-03-11T11:51:35.159Z,77.31
2018-03-11T11:54:03.826Z,75.02
2018-03-11T11:56:32.717Z,73.22
2018-03-11T11:59:01.506Z,73.31
2018-03-11T12:01:29.887Z,69.73
2018-03-11T12:03:58.312Z,69.06
2018-03-11T12:06:27.820Z,68.78
2018-03-11T12:08:57.785Z,69.44
2018-03-11T12:11:27.569Z,69.65
2018-03-11T12:13:57.325Z,69.56
2018-03-11T12:16:27.192Z,69.18
2018-03-11T12:18:57.299Z,70.16
2018-03-11T12:21:27.157Z,71.03
2018-03-11T12:23:57.085Z,70.58
2018-03-11T12:26:27.268Z,70.57
2018-03-11T12:28:58.003Z,69.59
2018-03-11T12:31:28.609Z,70.00
2018-03-11T12:33:58.527Z,71.82
2018-03-11T12:36:28.339Z,71.42
2018-03-11T12:38:58.107Z,70.69
2018-03-11T12:41:28.045Z,71.71
2018-03-11T12:43:58.079Z,72.92
2018-03-11T12:46:27.936Z,73.80
2018-03-11T12:48:58.687Z,74.52
2018-03-11T12:51:28.512Z,74.12
2018-03-11T12:53:58.475Z,74.93
2018-03-11T12:56:28.205Z,74.97
2018-03-11T12:58:59.034Z,75.24
2018-03-11T13:01:29.831Z,74.63
2018-03-11T13:03:59.547Z,74.42
2018-03-11T13:06:29.503Z,73.65
2018-03-11T13:09:00.239Z,73.96
2018-03-11T13:11:30.919Z,74.47
2018-03-11T13:14:00.824Z,73.29
2018-03-11T13:16:30.477Z,72.99
2018-03-11T13:19:01.123Z,72.88
2018-03-11T13:21:30.876Z,72.53
2018-03-11T13:24:00.815Z,71.35
2018-03-11T13:26:30.841Z,69.76
2018-03-11T13:29:00.735Z,70.14
2018-03-11T13:31:30.873Z,70.26
2018-03-11T13:37:13.147Z,70.08
2018-03-11T13:40:00.447Z,68.88
2018-03-11T13:42:31.024Z,68.33
2018-03-11T13:45:18.541Z,69.27
2018-03-11T13:47:47.970Z,69.54
2018-03-11T13:50:17.895Z,70.32
2018-03-11T13:53:05.078Z,69.38
2018-03-11T13:55:34.993Z,69.48
2018-03-11T14:01:18.461Z,67.32
2018-03-11T14:03:48.510Z,66.16
2018-03-11T14:06:19.205Z,65.73
2018-03-11T14:08:49.194Z,64.79
2018-03-11T14:11:19.095Z,64.47
2018-03-11T14:13:48.836Z,62.60
2018-03-11T14:16:18.793Z,59.37
2018-03-11T14:18:48.713Z,59.60
2018-03-11T14:21:19.467Z,57.80
2018-03-11T14:23:50.032Z,58.66
2018-03-11T14:26:19.981Z,59.75
2018-03-11T14:28:49.899Z,60.89
2018-03-11T14:31:19.996Z,62.60
2018-03-11T14:33:49.961Z,63.86
2018-03-11T14:36:20.440Z,64.79
2018-03-11T14:38:50.295Z,64.83
2018-03-11T14:41:20.923Z,65.07
2018-03-11T14:43:50.656Z,65.40
2018-03-11T14:46:20.562Z,67.06
2018-03-11T14:48:51.116Z,66.49
2018-03-11T14:51:21.038Z,67.54
2018-03-11T14:53:51.090Z,68.69
2018-03-11T14:56:20.987Z,69.32
2018-03-11T14:58:50.788Z,70.58
2018-03-11T15:01:20.523Z,69.83
2018-03-11T15:03:50.544Z,70.22
2018-03-11T15:06:20.702Z,70.92
2018-03-11T15:08:50.686Z,70.52
2018-03-11T15:11:21.000Z,69.97
2018-03-11T15:13:50.553Z,69.05
2018-03-11T15:16:20.355Z,69.84
2018-03-11T15:18:50.139Z,70.00
2018-03-11T15:21:20.038Z,70.18
2018-03-11T15:23:50.028Z,70.47
2018-03-11T15:26:19.908Z,70.37
2018-03-11T15:28:49.908Z,70.18
2018-03-11T15:31:20.877Z,70.46
2018-03-11T15:33:50.727Z,70.15
2018-03-11T15:36:21.791Z,69.89
2018-03-11T15:38:51.609Z,69.44
2018-03-11T15:41:21.501Z,68.71
2018-03-11T15:43:52.181Z,67.96
2018-03-11T15:46:22.062Z,66.56
2018-03-11T15:48:51.724Z,65.79
2018-03-11T15:51:21.676Z,65.17
2018-03-11T15:53:51.622Z,64.04
2018-03-11T15:56:22.367Z,64.05
2018-03-11T15:58:52.294Z,64.99
2018-03-11T16:01:22.404Z,65.79
2018-03-11T16:03:52.302Z,66.72
2018-03-11T16:06:23.044Z,68.54
2018-03-11T16:08:52.808Z,68.81
2018-03-11T16:11:22.785Z,69.90
2018-03-11T16:13:52.575Z,70.15
2018-03-11T16:16:23.276Z,71.28
2018-03-11T16:18:53.135Z,71.77
2018-03-11T16:21:23.291Z,72.19
2018-03-11T16:23:53.127Z,72.79
2018-03-11T16:26:23.089Z,73.87
2018-03-11T16:28:53.011Z,74.20
2018-03-11T16:31:23.035Z,74.76
2018-03-11T16:33:52.774Z,75.11
2018-03-11T16:36:22.871Z,75.04
2018-03-11T16:38:53.030Z,76.10
2018-03-11T16:41:23.783Z,76.83
2018-03-11T16:43:54.360Z,76.81
2018-03-11T16:46:24.507Z,76.53
2018-03-11T16:48:54.490Z,76.67
2018-03-11T16:51:24.351Z,76.68
2018-03-11T16:53:55.034Z,76.58
2018-03-11T16:56:25.077Z,76.51
2018-03-11T16:58:54.932Z,76.65
2018-03-11T17:01:25.669Z,76.61
2018-03-11T17:03:55.472Z,77.71
2018-03-11T17:06:26.241Z,78.78
2018-03-11T17:08:56.086Z,78.37
2018-03-11T17:11:26.740Z,78.56
2018-03-11T17:13:56.546Z,78.94
2018-03-11T17:16:27.176Z,79.07
2018-03-11T17:18:57.357Z,79.33
2018-03-11T17:21:27.294Z,80.34
2018-03-11T17:23:57.373Z,80.75
2018-03-11T17:26:27.476Z,79.97
2018-03-11T17:28:57.361Z,80.08
2018-03-11T17:31:27.945Z,79.76
2018-03-11T17:33:57.823Z,79.86
2018-03-11T17:36:28.623Z,80.38
2018-03-11T17:38:58.507Z,80.68
2018-03-11T17:41:28.534Z,81.08
2018-03-11T17:43:58.706Z,81.28
2018-03-11T17:46:29.367Z,81.13
2018-03-11T17:48:59.138Z,81.18
2018-03-11T17:51:29.223Z,81.23
2018-03-11T17:53:59.162Z,81.19
2018-03-11T17:56:29.130Z,80.90
2018-03-11T17:58:59.042Z,81.49
2018-03-11T18:01:29.093Z,81.41
2018-03-11T18:03:58.912Z,80.94
2018-03-11T18:06:29.009Z,80.79
2018-03-11T18:08:59.818Z,80.76
2018-03-11T18:11:29.737Z,80.90
2018-03-11T18:13:59.578Z,80.60
2018-03-11T18:16:29.778Z,80.40
2018-03-11T18:18:59.580Z,80.43
2018-03-11T18:21:29.497Z,80.53
2018-03-11T18:24:02.981Z,80.95
2018-03-11T18:26:33.563Z,81.38
2018-03-11T18:29:03.326Z,81.48
2018-03-11T18:31:34.271Z,81.40
2018-03-11T18:34:04.040Z,81.44
2018-03-11T18:36:34.007Z,81.55
2018-03-11T18:39:03.871Z,81.41
2018-03-11T18:41:34.240Z,81.08
2018-03-11T18:44:03.943Z,80.70
2018-03-11T18:46:33.749Z,80.66
2018-03-11T18:49:03.754Z,81.50
2018-03-11T18:51:34.565Z,81.30
2018-03-11T18:54:05.504Z,81.21
2018-03-11T18:56:35.563Z,81.20
2018-03-11T18:59:05.397Z,81.40
2018-03-11T19:01:35.043Z,82.30
2018-03-11T19:04:04.862Z,82.85
2018-03-11T19:06:34.814Z,82.60
2018-03-11T19:09:05.638Z,83.25
2018-03-11T19:11:36.471Z,83.49
2018-03-11T19:14:06.269Z,83.11
2018-03-11T19:16:37.253Z,82.47
2018-03-11T19:19:07.351Z,82.07
2018-03-11T19:21:38.230Z,81.98
2018-03-11T19:24:08.221Z,82.12
2018-03-11T19:26:38.333Z,81.92
2018-03-11T19:29:08.361Z,81.58
2018-03-11T19:31:38.370Z,81.29
2018-03-11T19:34:08.215Z,81.50
2018-03-11T19:36:38.164Z,83.31
2018-03-11T19:39:08.795Z,83.02
2018-03-11T19:41:39.542Z,84.14
2018-03-11T19:44:09.967Z,84.15
2018-03-11T19:46:40.742Z,84.07
2018-03-11T19:49:10.520Z,84.26
2018-03-11T19:51:40.378Z,84.96
2018-03-11T19:54:10.388Z,84.79
2018-03-11T19:56:40.319Z,84.37
2018-03-11T19:59:10.120Z,83.76
2018-03-11T20:01:40.160Z,83.31
2018-03-11T20:04:11.235Z,83.04
2018-03-11T20:06:41.489Z,82.75
2018-03-11T20:09:11.994Z,82.88
2018-03-11T20:11:42.040Z,82.75
2018-03-11T20:14:12.307Z,83.37
2018-03-11T20:16:42.605Z,84.00
2018-03-11T20:19:13.853Z,83.73
2018-03-11T20:21:44.778Z,83.86
2018-03-11T20:24:14.803Z,83.93
2018-03-11T20:26:44.862Z,83.97
2018-03-11T20:29:14.771Z,83.81
2018-03-11T20:31:44.711Z,83.95
2018-03-11T20:34:14.463Z,83.55
2018-03-11T20:36:44.935Z,83.54
2018-03-11T20:39:14.833Z,84.78
2018-03-11T20:41:44.802Z,85.00
2018-03-11T20:44:15.523Z,84.64
2018-03-11T20:46:46.147Z,85.87
2018-03-11T20:49:15.823Z,85.29
2018-03-11T20:51:46.503Z,84.32
2018-03-11T20:54:16.280Z,83.92
2018-03-11T20:56:46.243Z,84.66
2018-03-11T20:59:16.086Z,84.00
2018-03-11T21:01:45.666Z,83.73
2018-03-11T21:04:15.573Z,83.76
2018-03-11T21:06:46.578Z,84.55
2018-03-11T21:09:17.501Z,85.03
2018-03-11T21:11:48.439Z,85.42
2018-03-11T21:14:18.066Z,87.75
2018-03-11T21:16:47.979Z,87.88
2018-03-11T21:19:18.130Z,86.61
2018-03-11T21:21:48.106Z,90.26
2018-03-11T21:24:18.720Z,90.75
2018-03-11T21:26:49.409Z,89.27
2018-03-11T21:29:19.472Z,91.88
2018-03-11T21:31:50.020Z,94.16
2018-03-11T21:34:20.205Z,94.65
2018-03-11T21:36:50.455Z,92.04
2018-03-11T21:39:21.057Z,90.45
2018-03-11T21:41:50.844Z,89.62
2018-03-11T21:44:21.421Z,90.81
2018-03-11T21:46:52.158Z,92.17
2018-03-11T21:49:22.849Z,92.29
2018-03-11T21:51:53.816Z,91.88
2018-03-11T21:54:23.836Z,90.53
2018-03-11T21:56:54.687Z,89.73
2018-03-11T21:59:24.371Z,94.04
2018-03-11T22:01:54.405Z,94.29
2018-03-11T22:04:25.042Z,92.55
2018-03-11T22:06:55.911Z,90.79
2018-03-11T22:09:26.015Z,89.55
2018-03-11T22:11:55.726Z,88.70
2018-03-11T22:14:25.592Z,88.23
2018-03-11T22:16:54.522Z,88.13
2018-03-11T22:19:22.983Z,89.63
2018-03-11T22:21:51.343Z,89.99
2018-03-11T22:24:20.467Z,89.31
2018-03-11T22:26:48.848Z,88.70
2018-03-11T22:29:17.124Z,88.96
2018-03-11T22:31:45.400Z,89.94
2018-03-11T22:34:13.660Z,89.86
2018-03-11T22:36:41.939Z,88.62
2018-03-11T22:39:10.192Z,89.51
2018-03-11T22:41:39.226Z,90.27
2018-03-11T22:44:07.488Z,89.50
2018-03-11T22:46:35.755Z,88.95
2018-03-11T22:49:04.010Z,88.00
2018-03-11T22:51:32.331Z,88.58
2018-03-11T22:54:00.580Z,89.46
2018-03-11T22:56:29.599Z,91.24
2018-03-11T22:58:57.976Z,95.36
2018-03-11T23:01:26.232Z,95.91
2018-03-11T23:03:54.536Z,94.24
2018-03-11T23:06:22.791Z,92.64
2018-03-11T23:08:51.888Z,90.92
2018-03-11T23:11:20.174Z,90.11
2018-03-11T23:13:48.426Z,89.75
2018-03-11T23:16:17.460Z,89.21
2018-03-11T23:19:03.653Z,95.23
2018-03-11T23:21:31.920Z,97.88
2018-03-11T23:24:00.197Z,100.00
2018-03-11T23:26:28.469Z,98.77
2018-03-11T23:28:56.734Z,97.20
2018-03-11T23:31:25.010Z,95.82
2018-03-11T23:33:53.308Z,94.46
2018-03-11T23:36:21.563Z,94.81
2018-03-11T23:38:49.824Z,94.32
2018-03-11T23:41:18.865Z,92.97
2018-03-11T23:43:47.213Z,92.13
2018-03-11T23:46:15.467Z,91.62
2018-03-11T23:48:44.499Z,91.38
2018-03-11T23:51:12.750Z,90.20
2018-03-11T23:53:40.996Z,89.30
2018-03-11T23:56:09.301Z,89.08
2018-03-11T23:58:37.588Z,88.83
